sensor_id;sensor_type;location;lat;lon;timestamp;pressure;altitude;pressure_sealevel;temperature;humidity
64294;BME280;50636;45.596;5.258;2023-04-02T00:00:34;98334.44;;;10.96;96.12
64294;BME280;50636;45.596;5.258;2023-04-02T00:08:18;98330.97;;;11.02;97.93
64294;BME280;50636;45.596;5.258;2023-04-02T00:10:59;98339.59;;;11.16;98.67
64294;BME280;50636;45.596;5.258;2023-04-02T00:13:46;98341.09;;;11.30;99.39
64294;BME280;50636;45.596;5.258;2023-04-02T00:16:16;98346.47;;;11.42;98.99
64294;BME280;50636;45.596;5.258;2023-04-02T00:18:50;98349.22;;;11.54;99.23
64294;BME280;50636;45.596;5.258;2023-04-02T00:21:25;98346.16;;;11.57;98.11
64294;BME280;50636;45.596;5.258;2023-04-02T00:23:55;98346.50;;;11.60;97.82
64294;BME280;50636;45.596;5.258;2023-04-02T00:26:37;98350.28;;;11.71;98.15
64294;BME280;50636;45.596;5.258;2023-04-02T00:29:06;98353.06;;;11.76;97.54
64294;BME280;50636;45.596;5.258;2023-04-02T00:31:33;98346.94;;;11.83;97.51
64294;BME280;50636;45.596;5.258;2023-04-02T00:34:01;98345.75;;;11.78;96.88
64294;BME280;50636;45.596;5.258;2023-04-02T00:36:30;98350.16;;;11.85;97.00
64294;BME280;50636;45.596;5.258;2023-04-02T00:39:01;98348.56;;;11.84;96.50
64294;BME280;50636;45.596;5.258;2023-04-02T00:41:30;98345.34;;;11.82;96.80
64294;BME280;50636;45.596;5.258;2023-04-02T00:44:00;98338.16;;;11.95;97.25
64294;BME280;50636;45.596;5.258;2023-04-02T00:46:39;98344.13;;;12.03;96.47
64294;BME280;50636;45.596;5.258;2023-04-02T00:49:39;98350.13;;;11.91;95.08
64294;BME280;50636;45.596;5.258;2023-04-02T00:52:08;98342.72;;;11.82;95.94
64294;BME280;50636;45.596;5.258;2023-04-02T00:55:05;98345.63;;;11.73;95.63
64294;BME280;50636;45.596;5.258;2023-04-02T00:57:34;98342.69;;;11.63;95.86
64294;BME280;50636;45.596;5.258;2023-04-02T01:00:22;98347.97;;;11.56;95.71
64294;BME280;50636;45.596;5.258;2023-04-02T01:23:11;98363.59;;;11.19;95.26
64294;BME280;50636;45.596;5.258;2023-04-02T01:25:24;98367.34;;;11.37;95.45
64294;BME280;50636;45.596;5.258;2023-04-02T01:28:22;98365.31;;;11.32;94.32
64294;BME280;50636;45.596;5.258;2023-04-02T01:30:56;98372.78;;;11.35;94.61
64294;BME280;50636;45.596;5.258;2023-04-02T01:33:29;98370.31;;;11.40;94.59
64294;BME280;50636;45.596;5.258;2023-04-02T01:36:14;98372.75;;;11.42;94.70
64294;BME280;50636;45.596;5.258;2023-04-02T01:39:07;98375.81;;;11.39;94.35
64294;BME280;50636;45.596;5.258;2023-04-02T01:41:46;98373.22;;;11.32;94.33
64294;BME280;50636;45.596;5.258;2023-04-02T01:44:16;98383.78;;;11.26;95.48
64294;BME280;50636;45.596;5.258;2023-04-02T01:46:47;98376.28;;;11.29;95.64
64294;BME280;50636;45.596;5.258;2023-04-02T01:49:17;98372.16;;;11.40;95.57
64294;BME280;50636;45.596;5.258;2023-04-02T01:51:48;98376.03;;;11.37;94.92
64294;BME280;50636;45.596;5.258;2023-04-02T01:54:16;98384.03;;;11.49;95.41
64294;BME280;50636;45.596;5.258;2023-04-02T01:56:43;98366.81;;;11.53;95.06
64294;BME280;50636;45.596;5.258;2023-04-02T01:59:11;98368.56;;;11.59;94.99
64294;BME280;50636;45.596;5.258;2023-04-02T02:01:46;98377.97;;;11.74;95.14
64294;BME280;50636;45.596;5.258;2023-04-02T02:04:16;98370.81;;;11.81;94.57
64294;BME280;50636;45.596;5.258;2023-04-02T02:06:43;98376.13;;;11.74;93.64
64294;BME280;50636;45.596;5.258;2023-04-02T02:09:19;98378.28;;;11.59;93.27
64294;BME280;50636;45.596;5.258;2023-04-02T02:11:47;98377.25;;;11.60;94.22
64294;BME280;50636;45.596;5.258;2023-04-02T02:14:25;98379.72;;;11.55;90.78
64294;BME280;50636;45.596;5.258;2023-04-02T02:16:52;98378.78;;;11.49;91.46
64294;BME280;50636;45.596;5.258;2023-04-02T02:19:40;98380.25;;;11.38;91.56
64294;BME280;50636;45.596;5.258;2023-04-02T02:24:54;98388.56;;;11.35;91.79
64294;BME280;50636;45.596;5.258;2023-04-02T02:30:21;98388.81;;;11.27;91.15
64294;BME280;50636;45.596;5.258;2023-04-02T02:33:36;98396.44;;;11.35;90.95
64294;BME280;50636;45.596;5.258;2023-04-02T02:38:41;98394.06;;;11.27;90.67
64294;BME280;50636;45.596;5.258;2023-04-02T02:46:43;98397.38;;;11.48;91.06
64294;BME280;50636;45.596;5.258;2023-04-02T02:49:19;98397.69;;;11.58;91.25
64294;BME280;50636;45.596;5.258;2023-04-02T02:54:37;98398.41;;;11.15;89.84
64294;BME280;50636;45.596;5.258;2023-04-02T02:57:08;98392.41;;;11.01;90.45
64294;BME280;50636;45.596;5.258;2023-04-02T02:59:35;98408.56;;;10.98;90.33
64294;BME280;50636;45.596;5.258;2023-04-02T03:02:01;98411.59;;;11.02;91.38
64294;BME280;50636;45.596;5.258;2023-04-02T03:04:29;98408.91;;;11.15;91.84
64294;BME280;50636;45.596;5.258;2023-04-02T03:06:56;98409.66;;;11.22;90.78
64294;BME280;50636;45.596;5.258;2023-04-02T03:12:43;98406.81;;;11.24;90.12
64294;BME280;50636;45.596;5.258;2023-04-02T03:15:31;98415.69;;;11.29;90.72
64294;BME280;50636;45.596;5.258;2023-04-02T03:18:06;98418.66;;;11.39;90.88
64294;BME280;50636;45.596;5.258;2023-04-02T03:20:51;98419.56;;;11.52;90.92
64294;BME280;50636;45.596;5.258;2023-04-02T03:23:40;98421.53;;;11.63;90.58
64294;BME280;50636;45.596;5.258;2023-04-02T03:26:22;98416.75;;;11.78;91.33
64294;BME280;50636;45.596;5.258;2023-04-02T03:28:58;98414.47;;;11.89;91.41
64294;BME280;50636;45.596;5.258;2023-04-02T03:31:40;98414.88;;;11.86;91.24
64294;BME280;50636;45.596;5.258;2023-04-02T03:34:21;98425.09;;;11.69;90.07
64294;BME280;50636;45.596;5.258;2023-04-02T03:37:12;98423.91;;;11.65;90.97
64294;BME280;50636;45.596;5.258;2023-04-02T03:39:57;98425.28;;;11.74;91.18
64294;BME280;50636;45.596;5.258;2023-04-02T03:42:25;98420.31;;;11.91;91.60
64294;BME280;50636;45.596;5.258;2023-04-02T03:47:53;98418.41;;;12.23;91.16
64294;BME280;50636;45.596;5.258;2023-04-02T03:50:33;98422.19;;;12.27;90.88
64294;BME280;50636;45.596;5.258;2023-04-02T03:53:02;98417.97;;;12.08;91.49
64294;BME280;50636;45.596;5.258;2023-04-02T03:55:36;98420.03;;;11.99;92.04
64294;BME280;50636;45.596;5.258;2023-04-02T03:58:31;98419.41;;;12.04;91.49
64294;BME280;50636;45.596;5.258;2023-04-02T04:03:47;98429.63;;;11.87;91.04
64294;BME280;50636;45.596;5.258;2023-04-02T04:06:26;98435.59;;;11.75;90.96
64294;BME280;50636;45.596;5.258;2023-04-02T04:11:53;98426.22;;;11.54;90.25
64294;BME280;50636;45.596;5.258;2023-04-02T04:14:30;98431.69;;;11.53;91.19
64294;BME280;50636;45.596;5.258;2023-04-02T04:17:15;98431.66;;;11.59;90.45
64294;BME280;50636;45.596;5.258;2023-04-02T04:19:57;98429.81;;;11.60;89.21
64294;BME280;50636;45.596;5.258;2023-04-02T04:22:27;98430.84;;;11.59;89.36
64294;BME280;50636;45.596;5.258;2023-04-02T04:24:59;98433.91;;;11.56;89.23
64294;BME280;50636;45.596;5.258;2023-04-02T04:27:49;98437.31;;;11.56;89.00
64294;BME280;50636;45.596;5.258;2023-04-02T04:30:28;98439.06;;;11.69;89.80
64294;BME280;50636;45.596;5.258;2023-04-02T04:33:08;98444.09;;;11.71;89.07
64294;BME280;50636;45.596;5.258;2023-04-02T04:35:47;98443.16;;;11.58;88.64
64294;BME280;50636;45.596;5.258;2023-04-02T04:38:34;98445.06;;;11.45;89.16
64294;BME280;50636;45.596;5.258;2023-04-02T04:41:04;98442.38;;;11.58;91.14
64294;BME280;50636;45.596;5.258;2023-04-02T04:43:45;98447.44;;;11.59;90.62
64294;BME280;50636;45.596;5.258;2023-04-02T04:46:21;98446.41;;;11.60;91.81
64294;BME280;50636;45.596;5.258;2023-04-02T04:51:50;98442.22;;;12.10;92.50
64294;BME280;50636;45.596;5.258;2023-04-02T04:54:13;98453.94;;;12.07;92.25
64294;BME280;50636;45.596;5.258;2023-04-02T04:56:44;98458.03;;;12.03;92.74
64294;BME280;50636;45.596;5.258;2023-04-02T04:59:20;98455.78;;;12.07;93.51
64294;BME280;50636;45.596;5.258;2023-04-02T05:02:15;98454.28;;;12.17;93.72
64294;BME280;50636;45.596;5.258;2023-04-02T05:04:48;98458.53;;;12.18;93.86
64294;BME280;50636;45.596;5.258;2023-04-02T05:07:30;98455.16;;;12.11;94.66
64294;BME280;50636;45.596;5.258;2023-04-02T05:10:19;98463.69;;;12.07;94.84
64294;BME280;50636;45.596;5.258;2023-04-02T05:12:55;98471.47;;;11.95;96.24
64294;BME280;50636;45.596;5.258;2023-04-02T05:20:51;98477.97;;;11.86;98.05
64294;BME280;50636;45.596;5.258;2023-04-02T05:23:31;98483.16;;;11.67;98.79
64294;BME280;50636;45.596;5.258;2023-04-02T05:28:56;98486.28;;;11.83;100.00
64294;BME280;50636;45.596;5.258;2023-04-02T05:31:44;98483.72;;;11.76;100.00
64294;BME280;50636;45.596;5.258;2023-04-02T05:34:24;98484.22;;;11.59;100.00
64294;BME280;50636;45.596;5.258;2023-04-02T05:36:52;98484.97;;;11.67;100.00
64294;BME280;50636;45.596;5.258;2023-04-02T05:39:24;98490.06;;;11.62;100.00
64294;BME280;50636;45.596;5.258;2023-04-02T05:42:02;98490.69;;;11.25;100.00
64294;BME280;50636;45.596;5.258;2023-04-02T05:44:30;98500.63;;;11.10;100.00
64294;BME280;50636;45.596;5.258;2023-04-02T05:49:49;98487.53;;;10.96;100.00
64294;BME280;50636;45.596;5.258;2023-04-02T05:52:22;98504.31;;;10.95;100.00
64294;BME280;50636;45.596;5.258;2023-04-02T05:57:22;98513.97;;;11.08;100.00
64294;BME280;50636;45.596;5.258;2023-04-02T05:59:55;98514.56;;;11.17;100.00
64294;BME280;50636;45.596;5.258;2023-04-02T06:02:38;98509.97;;;11.44;100.00
64294;BME280;50636;45.596;5.258;2023-04-02T06:05:11;98517.63;;;11.52;100.00
64294;BME280;50636;45.596;5.258;2023-04-02T06:08:21;98514.13;;;11.58;100.00
64294;BME280;50636;45.596;5.258;2023-04-02T06:10:54;98524.25;;;11.62;100.00
64294;BME280;50636;45.596;5.258;2023-04-02T06:13:22;98523.84;;;11.58;100.00
64294;BME280;50636;45.596;5.258;2023-04-02T06:15:48;98520.03;;;11.54;100.00
64294;BME280;50636;45.596;5.258;2023-04-02T06:18:17;98523.16;;;11.37;100.00
64294;BME280;50636;45.596;5.258;2023-04-02T06:20:45;98525.06;;;11.17;100.00
64294;BME280;50636;45.596;5.258;2023-04-02T06:26:11;98529.75;;;11.02;100.00
64294;BME280;50636;45.596;5.258;2023-04-02T06:29:24;98529.34;;;10.98;100.00
64294;BME280;50636;45.596;5.258;2023-04-02T06:31:43;98536.56;;;11.16;100.00
64294;BME280;50636;45.596;5.258;2023-04-02T06:34:26;98539.56;;;11.33;100.00
64294;BME280;50636;45.596;5.258;2023-04-02T06:37:23;98542.38;;;11.25;100.00
64294;BME280;50636;45.596;5.258;2023-04-02T06:39:52;98544.22;;;11.24;100.00
64294;BME280;50636;45.596;5.258;2023-04-02T06:42:27;98546.31;;;11.54;100.00
64294;BME280;50636;45.596;5.258;2023-04-02T06:44:54;98551.28;;;11.75;100.00
64294;BME280;50636;45.596;5.258;2023-04-02T06:47:33;98553.22;;;11.87;100.00
64294;BME280;50636;45.596;5.258;2023-04-02T06:52:33;98560.13;;;12.19;100.00
64294;BME280;50636;45.596;5.258;2023-04-02T06:55:09;98557.31;;;12.14;100.00
64294;BME280;50636;45.596;5.258;2023-04-02T06:57:46;98561.97;;;12.12;100.00
64294;BME280;50636;45.596;5.258;2023-04-02T07:02:58;98563.97;;;12.17;100.00
64294;BME280;50636;45.596;5.258;2023-04-02T07:05:26;98570.06;;;12.17;100.00
64294;BME280;50636;45.596;5.258;2023-04-02T07:07:52;98573.91;;;12.15;100.00
64294;BME280;50636;45.596;5.258;2023-04-02T07:10:18;98574.75;;;12.09;100.00
64294;BME280;50636;45.596;5.258;2023-04-02T07:12:45;98579.16;;;12.15;100.00
64294;BME280;50636;45.596;5.258;2023-04-02T07:15:17;98575.66;;;12.21;100.00
64294;BME280;50636;45.596;5.258;2023-04-02T07:17:45;98583.22;;;12.17;100.00
64294;BME280;50636;45.596;5.258;2023-04-02T07:20:27;98580.59;;;12.11;100.00
64294;BME280;50636;45.596;5.258;2023-04-02T07:22:54;98588.28;;;12.12;100.00
64294;BME280;50636;45.596;5.258;2023-04-02T07:25:20;98596.63;;;12.03;100.00
64294;BME280;50636;45.596;5.258;2023-04-02T07:27:46;98590.09;;;11.73;100.00
64294;BME280;50636;45.596;5.258;2023-04-02T07:30:12;98604.69;;;11.63;100.00
64294;BME280;50636;45.596;5.258;2023-04-02T07:32:38;98605.94;;;11.60;100.00
64294;BME280;50636;45.596;5.258;2023-04-02T07:35:04;98601.78;;;11.39;100.00
64294;BME280;50636;45.596;5.258;2023-04-02T07:37:30;98610.13;;;11.09;100.00
64294;BME280;50636;45.596;5.258;2023-04-02T07:39:56;98606.28;;;11.12;100.00
64294;BME280;50636;45.596;5.258;2023-04-02T07:42:22;98617.31;;;11.40;100.00
64294;BME280;50636;45.596;5.258;2023-04-02T07:44:47;98619.63;;;11.69;100.00
64294;BME280;50636;45.596;5.258;2023-04-02T07:47:13;98621.38;;;11.88;100.00
64294;BME280;50636;45.596;5.258;2023-04-02T07:49:39;98623.16;;;12.01;100.00
64294;BME280;50636;45.596;5.258;2023-04-02T07:52:05;98629.59;;;12.12;100.00
64294;BME280;50636;45.596;5.258;2023-04-02T07:54:31;98632.00;;;12.13;100.00
64294;BME280;50636;45.596;5.258;2023-04-02T07:56:57;98635.38;;;12.21;100.00
64294;BME280;50636;45.596;5.258;2023-04-02T07:59:22;98639.41;;;12.23;100.00
64294;BME280;50636;45.596;5.258;2023-04-02T08:01:48;98634.84;;;12.12;100.00
64294;BME280;50636;45.596;5.258;2023-04-02T08:04:21;98636.19;;;11.76;100.00
64294;BME280;50636;45.596;5.258;2023-04-02T08:06:48;98640.75;;;11.42;100.00
64294;BME280;50636;45.596;5.258;2023-04-02T08:09:15;98641.78;;;11.41;100.00
64294;BME280;50636;45.596;5.258;2023-04-02T08:11:42;98648.00;;;11.60;100.00
64294;BME280;50636;45.596;5.258;2023-04-02T08:14:08;98648.50;;;11.89;100.00
64294;BME280;50636;45.596;5.258;2023-04-02T08:16:50;98638.63;;;12.23;100.00
64294;BME280;50636;45.596;5.258;2023-04-02T08:19:17;98643.34;;;12.71;100.00
64294;BME280;50636;45.596;5.258;2023-04-02T08:21:43;98641.69;;;13.20;100.00
64294;BME280;50636;45.596;5.258;2023-04-02T08:24:09;98644.16;;;13.40;100.00
64294;BME280;50636;45.596;5.258;2023-04-02T08:26:35;98641.72;;;13.57;100.00
64294;BME280;50636;45.596;5.258;2023-04-02T08:29:01;98648.97;;;13.62;100.00
64294;BME280;50636;45.596;5.258;2023-04-02T08:31:27;98649.31;;;13.84;100.00
64294;BME280;50636;45.596;5.258;2023-04-02T08:33:52;98648.38;;;14.08;100.00
64294;BME280;50636;45.596;5.258;2023-04-02T08:36:26;98654.47;;;14.39;100.00
64294;BME280;50636;45.596;5.258;2023-04-02T08:38:53;98650.19;;;14.68;100.00
64294;BME280;50636;45.596;5.258;2023-04-02T08:41:24;98658.34;;;14.90;98.51
64294;BME280;50636;45.596;5.258;2023-04-02T08:44:14;98663.28;;;14.98;98.18
64294;BME280;50636;45.596;5.258;2023-04-02T08:46:47;98661.00;;;15.14;99.73
64294;BME280;50636;45.596;5.258;2023-04-02T08:49:29;98666.97;;;15.21;99.14
64294;BME280;50636;45.596;5.258;2023-04-02T08:51:56;98666.66;;;15.17;98.50
64294;BME280;50636;45.596;5.258;2023-04-02T08:54:28;98667.34;;;15.01;96.91
64294;BME280;50636;45.596;5.258;2023-04-02T08:57:05;98670.66;;;14.96;96.71
64294;BME280;50636;45.596;5.258;2023-04-02T08:59:34;98666.41;;;14.95;96.96
64294;BME280;50636;45.596;5.258;2023-04-02T09:02:43;98671.69;;;14.84;96.24
64294;BME280;50636;45.596;5.258;2023-04-02T09:05:17;98676.69;;;14.62;95.33
64294;BME280;50636;45.596;5.258;2023-04-02T09:07:47;98675.63;;;14.51;94.06
64294;BME280;50636;45.596;5.258;2023-04-02T09:10:16;98677.19;;;14.40;92.37
64294;BME280;50636;45.596;5.258;2023-04-02T09:12:47;98680.25;;;14.25;92.22
64294;BME280;50636;45.596;5.258;2023-04-02T09:17:45;98689.56;;;14.70;94.62
64294;BME280;50636;45.596;5.258;2023-04-02T09:20:31;98686.84;;;15.00;91.96
64294;BME280;50636;45.596;5.258;2023-04-02T09:22:58;98684.34;;;15.05;90.61
64294;BME280;50636;45.596;5.258;2023-04-02T09:25:26;98693.72;;;14.77;88.58
64294;BME280;50636;45.596;5.258;2023-04-02T09:27:54;98695.56;;;14.77;89.49
64294;BME280;50636;45.596;5.258;2023-04-02T09:30:39;98695.25;;;14.85;86.85
64294;BME280;50636;45.596;5.258;2023-04-02T09:33:08;98696.75;;;15.28;85.13
64294;BME280;50636;45.596;5.258;2023-04-02T09:35:36;98695.59;;;15.60;84.19
64294;BME280;50636;45.596;5.258;2023-04-02T09:38:27;98703.94;;;15.92;83.53
64294;BME280;50636;45.596;5.258;2023-04-02T09:41:03;98707.41;;;16.21;80.17
64294;BME280;50636;45.596;5.258;2023-04-02T09:43:34;98702.28;;;16.31;78.49
64294;BME280;50636;45.596;5.258;2023-04-02T09:46:12;98702.56;;;16.30;77.37
64294;BME280;50636;45.596;5.258;2023-04-02T09:48:48;98704.31;;;16.41;81.01
64294;BME280;50636;45.596;5.258;2023-04-02T09:51:18;98702.59;;;16.64;77.01
64294;BME280;50636;45.596;5.258;2023-04-02T09:56:29;98702.16;;;16.38;74.72
64294;BME280;50636;45.596;5.258;2023-04-02T09:59:03;98707.75;;;16.25;74.39
64294;BME280;50636;45.596;5.258;2023-04-02T10:01:36;98704.75;;;16.21;72.04
64294;BME280;50636;45.596;5.258;2023-04-02T10:04:05;98708.19;;;15.93;71.11
64294;BME280;50636;45.596;5.258;2023-04-02T10:06:33;98717.31;;;15.62;72.99
64294;BME280;50636;45.596;5.258;2023-04-02T10:09:26;98707.88;;;15.66;76.80
64294;BME280;50636;45.596;5.258;2023-04-02T10:11:54;98706.63;;;15.80;70.94
64294;BME280;50636;45.596;5.258;2023-04-02T10:14:34;98720.06;;;15.78;71.87
64294;BME280;50636;45.596;5.258;2023-04-02T10:17:24;98713.28;;;15.83;72.58
64294;BME280;50636;45.596;5.258;2023-04-02T10:19:59;98708.00;;;16.11;70.16
64294;BME280;50636;45.596;5.258;2023-04-02T10:22:31;98708.78;;;16.52;67.60
64294;BME280;50636;45.596;5.258;2023-04-02T10:24:57;98710.03;;;16.50;63.01
64294;BME280;50636;45.596;5.258;2023-04-02T10:27:31;98718.41;;;16.01;62.28
64294;BME280;50636;45.596;5.258;2023-04-02T10:30:25;98722.94;;;15.65;66.71
64294;BME280;50636;45.596;5.258;2023-04-02T10:38:26;98722.69;;;15.90;67.25
64294;BME280;50636;45.596;5.258;2023-04-02T10:41:10;98720.75;;;16.26;66.71
64294;BME280;50636;45.596;5.258;2023-04-02T10:49:31;98719.69;;;16.85;65.22
64294;BME280;50636;45.596;5.258;2023-04-02T10:52:08;98728.84;;;17.11;62.02
64294;BME280;50636;45.596;5.258;2023-04-02T10:54:45;98722.31;;;17.35;62.24
64294;BME280;50636;45.596;5.258;2023-04-02T10:59:52;98707.69;;;17.16;57.29
64294;BME280;50636;45.596;5.258;2023-04-02T11:02:28;98717.50;;;16.82;59.24
64294;BME280;50636;45.596;5.258;2023-04-02T11:04:57;98719.53;;;16.63;62.32
64294;BME280;50636;45.596;5.258;2023-04-02T11:07:27;98719.50;;;16.74;59.51
64294;BME280;50636;45.596;5.258;2023-04-02T11:09:56;98723.13;;;16.85;59.62
64294;BME280;50636;45.596;5.258;2023-04-02T11:12:45;98726.22;;;16.65;60.51
64294;BME280;50636;45.596;5.258;2023-04-02T11:15:17;98729.34;;;16.62;59.79
64294;BME280;50636;45.596;5.258;2023-04-02T11:17:44;98732.28;;;16.49;60.87
64294;BME280;50636;45.596;5.258;2023-04-02T11:23:18;98732.19;;;16.15;61.13
64294;BME280;50636;45.596;5.258;2023-04-02T11:25:45;98733.47;;;16.41;60.29
64294;BME280;50636;45.596;5.258;2023-04-02T11:28:27;98731.03;;;16.68;59.52
64294;BME280;50636;45.596;5.258;2023-04-02T11:30:54;98736.41;;;16.73;59.25
64294;BME280;50636;45.596;5.258;2023-04-02T11:35:56;98735.34;;;16.57;58.57
64294;BME280;50636;45.596;5.258;2023-04-02T11:40:54;98739.31;;;16.14;59.80
64294;BME280;50636;45.596;5.258;2023-04-02T11:46:00;98734.84;;;16.89;58.53
64294;BME280;50636;45.596;5.258;2023-04-02T11:48:32;98737.34;;;16.96;56.50
64294;BME280;50636;45.596;5.258;2023-04-02T11:51:45;98736.78;;;16.94;56.80
64294;BME280;50636;45.596;5.258;2023-04-02T11:53:48;98738.59;;;16.76;57.16
64294;BME280;50636;45.596;5.258;2023-04-02T11:56:20;98737.25;;;16.45;56.66
64294;BME280;50636;45.596;5.258;2023-04-02T11:59:12;98742.19;;;16.13;58.04
64294;BME280;50636;45.596;5.258;2023-04-02T12:02:24;98748.81;;;15.87;59.44
64294;BME280;50636;45.596;5.258;2023-04-02T12:05:09;98750.31;;;15.94;60.65
64294;BME280;50636;45.596;5.258;2023-04-02T12:10:59;98752.16;;;15.70;62.20
64294;BME280;50636;45.596;5.258;2023-04-02T12:16:12;98753.56;;;15.49;61.20
64294;BME280;50636;45.596;5.258;2023-04-02T12:18:57;98751.47;;;15.63;60.98
64294;BME280;50636;45.596;5.258;2023-04-02T12:21:25;98752.25;;;15.87;60.42
64294;BME280;50636;45.596;5.258;2023-04-02T12:23:55;98751.97;;;16.24;58.57
64294;BME280;50636;45.596;5.258;2023-04-02T12:26:32;98748.34;;;16.42;57.58
64294;BME280;50636;45.596;5.258;2023-04-02T12:29:27;98754.38;;;16.54;56.16
64294;BME280;50636;45.596;5.258;2023-04-02T12:31:57;98747.81;;;16.74;55.11
64294;BME280;50636;45.596;5.258;2023-04-02T12:34:25;98743.00;;;16.71;55.46
64294;BME280;50636;45.596;5.258;2023-04-02T12:36:56;98747.47;;;16.53;60.51
64294;BME280;50636;45.596;5.258;2023-04-02T12:39:24;98749.34;;;16.12;62.56
64294;BME280;50636;45.596;5.258;2023-04-02T12:41:50;98744.47;;;15.81;63.23
64294;BME280;50636;45.596;5.258;2023-04-02T12:44:19;98749.66;;;15.52;61.87
64294;BME280;50636;45.596;5.258;2023-04-02T12:46:47;98760.44;;;15.38;62.57
64294;BME280;50636;45.596;5.258;2023-04-02T12:49:41;98754.47;;;15.31;63.59
64294;BME280;50636;45.596;5.258;2023-04-02T12:52:13;98758.69;;;15.21;63.29
64294;BME280;50636;45.596;5.258;2023-04-02T12:54:54;98760.19;;;15.16;63.14
64294;BME280;50636;45.596;5.258;2023-04-02T12:59:50;98765.06;;;15.31;64.59
64294;BME280;50636;45.596;5.258;2023-04-02T13:02:21;98759.66;;;15.38;64.57
64294;BME280;50636;45.596;5.258;2023-04-02T13:04:55;98762.97;;;15.22;64.80
64294;BME280;50636;45.596;5.258;2023-04-02T13:07:23;98758.34;;;15.05;66.44
64294;BME280;50636;45.596;5.258;2023-04-02T13:09:58;98764.06;;;14.90;66.95
64294;BME280;50636;45.596;5.258;2023-04-02T13:12:39;98754.38;;;14.84;67.41
64294;BME280;50636;45.596;5.258;2023-04-02T13:15:20;98763.31;;;15.13;66.65
64294;BME280;50636;45.596;5.258;2023-04-02T13:18:01;98754.22;;;15.33;64.17
64294;BME280;50636;45.596;5.258;2023-04-02T13:20:35;98760.09;;;15.47;63.55
64294;BME280;50636;45.596;5.258;2023-04-02T13:25:49;98751.91;;;16.65;61.05
64294;BME280;50636;45.596;5.258;2023-04-02T13:28:15;98743.34;;;17.42;58.47
64294;BME280;50636;45.596;5.258;2023-04-02T13:30:41;98746.81;;;17.82;56.17
64294;BME280;50636;45.596;5.258;2023-04-02T13:33:06;98741.41;;;18.15;53.92
64294;BME280;50636;45.596;5.258;2023-04-02T13:35:32;98736.47;;;18.24;52.41
64294;BME280;50636;45.596;5.258;2023-04-02T13:37:58;98734.06;;;18.23;52.75
64294;BME280;50636;45.596;5.258;2023-04-02T13:40:27;98732.81;;;18.30;51.88
64294;BME280;50636;45.596;5.258;2023-04-02T13:42:53;98731.97;;;18.03;50.96
64294;BME280;50636;45.596;5.258;2023-04-02T13:45:52;98727.34;;;17.54;50.93
64294;BME280;50636;45.596;5.258;2023-04-02T13:48:14;98736.94;;;17.04;52.42
64294;BME280;50636;45.596;5.258;2023-04-02T13:50:40;98737.72;;;16.71;53.26
64294;BME280;50636;45.596;5.258;2023-04-02T13:53:10;98741.34;;;16.82;54.28
64294;BME280;50636;45.596;5.258;2023-04-02T13:55:39;98735.34;;;16.86;53.21
64294;BME280;50636;45.596;5.258;2023-04-02T13:58:07;98745.84;;;16.81;57.12
64294;BME280;50636;45.596;5.258;2023-04-02T14:00:34;98749.53;;;16.51;59.41
64294;BME280;50636;45.596;5.258;2023-04-02T14:03:08;98735.59;;;16.27;58.06
64294;BME280;50636;45.596;5.258;2023-04-02T14:16:58;98761.25;;;15.98;62.43
64294;BME280;50636;45.596;5.258;2023-04-02T14:19:50;98759.84;;;15.25;65.76
64294;BME280;50636;45.596;5.258;2023-04-02T14:31:03;98765.72;;;14.24;70.02
64294;BME280;50636;45.596;5.258;2023-04-02T14:40:02;98774.81;;;14.28;68.88
64294;BME280;50636;45.596;5.258;2023-04-02T14:48:09;98779.22;;;14.83;66.38
64294;BME280;50636;45.596;5.258;2023-04-02T14:50:40;98775.66;;;14.89;65.51
64294;BME280;50636;45.596;5.258;2023-04-02T14:53:35;98774.28;;;14.98;65.29
64294;BME280;50636;45.596;5.258;2023-04-02T14:56:09;98785.59;;;15.06;64.67
64294;BME280;50636;45.596;5.258;2023-04-02T14:58:40;98775.38;;;15.09;62.50
64294;BME280;50636;45.596;5.258;2023-04-02T15:01:17;98775.16;;;15.23;62.45
64294;BME280;50636;45.596;5.258;2023-04-02T15:04:04;98771.25;;;15.37;62.65
64294;BME280;50636;45.596;5.258;2023-04-02T15:06:36;98771.16;;;15.44;60.90
64294;BME280;50636;45.596;5.258;2023-04-02T15:09:40;98769.19;;;15.51;60.89
64294;BME280;50636;45.596;5.258;2023-04-02T15:12:26;98771.59;;;15.52;60.20
64294;BME280;50636;45.596;5.258;2023-04-02T15:15:03;98765.38;;;15.58;59.92
64294;BME280;50636;45.596;5.258;2023-04-02T15:17:32;98770.34;;;15.78;60.67
64294;BME280;50636;45.596;5.258;2023-04-02T15:20:11;98770.78;;;15.87;59.41
64294;BME280;50636;45.596;5.258;2023-04-02T15:23:03;98776.66;;;15.89;58.43
64294;BME280;50636;45.596;5.258;2023-04-02T15:25:41;98778.97;;;15.86;58.14
64294;BME280;50636;45.596;5.258;2023-04-02T15:28:19;98772.78;;;15.80;58.11
64294;BME280;50636;45.596;5.258;2023-04-02T15:30:48;98769.53;;;15.66;58.12
64294;BME280;50636;45.596;5.258;2023-04-02T15:38:47;98777.78;;;15.23;60.90
64294;BME280;50636;45.596;5.258;2023-04-02T15:41:24;98776.66;;;14.76;64.13
64294;BME280;50636;45.596;5.258;2023-04-02T15:44:07;98781.56;;;14.24;67.87
64294;BME280;50636;45.596;5.258;2023-04-02T15:49:28;98788.50;;;14.07;68.71
64294;BME280;50636;45.596;5.258;2023-04-02T15:55:21;98774.50;;;14.55;66.06
64294;BME280;50636;45.596;5.258;2023-04-02T16:00:30;98780.00;;;14.84;63.74
64294;BME280;50636;45.596;5.258;2023-04-02T16:03:16;98780.44;;;14.81;63.73
64294;BME280;50636;45.596;5.258;2023-04-02T16:11:11;98788.34;;;14.99;61.28
64294;BME280;50636;45.596;5.258;2023-04-02T16:13:39;98795.00;;;15.02;61.31
64294;BME280;50636;45.596;5.258;2023-04-02T16:21:14;98802.94;;;15.02;59.86
64294;BME280;50636;45.596;5.258;2023-04-02T16:23:41;98804.88;;;15.06;59.71
64294;BME280;50636;45.596;5.258;2023-04-02T16:31:12;98812.84;;;14.76;59.75
64294;BME280;50636;45.596;5.258;2023-04-02T16:34:24;98818.22;;;14.69;60.65
64294;BME280;50636;45.596;5.258;2023-04-02T16:37:20;98813.47;;;14.60;62.10